Terminal Aerodrome Forecast
Issued by NWS Duluth, MN

Home | Current Version | Previous Version | Text Only | Print | Product List | Glossary On
Versions: 1 2 3 4 5 6 7 8 9 10 11 12 13 14 15 16 17 18 19 20 21 22 23 24 25 26
000
FTUS43 KDLH 170200 AAB
TAFDLH
TAF AMD
KDLH 170220Z 1702/1724 33009G16KT P6SM -SN BKN019 OVC060
     FM170600 32009KT 5SM -SN BKN015 OVC035
     FM171300 35008KT P6SM BKN020 OVC035
     FM171800 36003KT P6SM OVC013=

USA.gov is the U.S. government's official web portal to all federal, state and local government web resources and services.